Weather at Ringhorne Platform

Public forecast

Using degrees Celsius for public forecast. Weather courtesy of forecast.io.

Closest aviation weather report (METAR) to Ringhorne Platform

Closest report is Johan Sverdrup Helipad, 26.1 nm (48.3 km) S.

2024/07/18 16:50 (retrieved 36 minutes ago)

ENJS 181650Z 17021KT CAVOK 15/14 Q1018 W13/S3

Closest aviation forecast (TAF) to Ringhorne Platform

Closest forecast is Oseberg A Platform, 74.4 nm (137.8 km) N.

2024/07/18 15:36 (retrieved 2 hours ago)

TAF TAF ENOA 181400Z 1815/1915 17018KT 9999 FEW010 BKN050 TEMPO 1815/1822 4000 -RADZ BR BKN007 PROB30 1822/1912 0500 FG VV002